Shinrock, Ohio
Current Conditions -  °F | °C
As of 3:13 PM on Monday 24 Nov 2014 (Local Time) from KPCW Reporting Station
Overcast Overcast  
Wind Chill: 34°   Ceiling: 2600
Heat Index: 45°   Visibility: 10mi
Dew Point: 37°   Wind: 35mph
Humidity: 76%   Direction: 220°SW
Pressure: 29.46"   Gusts: NA
Location:  41.3748°N, 82.5554°W
Report Text: KPCW 242013Z AUTO 22030KT 10SM OVC026 07/03 A2946 RMK AO2 PK WND
Loading
Personal Weather Stations






























Interactive Weather Map New forecast layout! Learn more

10-Day Weather Forecast

Advertisements
Track Severe Weather on mobile